sensor_id;sensor_type;location;lat;lon;timestamp;P1;durP1;ratioP1;P2;durP2;ratioP2
5297;SDS011;14738;42.668;23.250;2023-04-03T00:00:05;3.80;;;3.20;;
5297;SDS011;14738;42.668;23.250;2023-04-03T00:02:31;3.73;;;3.40;;
5297;SDS011;14738;42.668;23.250;2023-04-03T00:04:57;3.57;;;3.07;;
5297;SDS011;14738;42.668;23.250;2023-04-03T00:07:23;3.10;;;2.90;;
5297;SDS011;14738;42.668;23.250;2023-04-03T00:09:48;3.00;;;2.80;;
5297;SDS011;14738;42.668;23.250;2023-04-03T00:12:13;3.17;;;2.97;;
5297;SDS011;14738;42.668;23.250;2023-04-03T00:14:40;3.97;;;2.43;;
5297;SDS011;14738;42.668;23.250;2023-04-03T00:17:05;2.60;;;2.50;;
5297;SDS011;14738;42.668;23.250;2023-04-03T00:19:31;2.33;;;2.23;;
5297;SDS011;14738;42.668;23.250;2023-04-03T00:21:56;2.93;;;2.73;;
5297;SDS011;14738;42.668;23.250;2023-04-03T00:24:22;2.23;;;2.03;;
5297;SDS011;14738;42.668;23.250;2023-04-03T00:26:47;2.70;;;2.50;;
5297;SDS011;14738;42.668;23.250;2023-04-03T00:29:13;2.30;;;2.20;;
5297;SDS011;14738;42.668;23.250;2023-04-03T00:31:38;2.40;;;2.30;;
5297;SDS011;14738;42.668;23.250;2023-04-03T00:34:05;2.70;;;2.57;;
5297;SDS011;14738;42.668;23.250;2023-04-03T00:36:30;2.80;;;2.70;;
5297;SDS011;14738;42.668;23.250;2023-04-03T00:38:56;2.30;;;2.20;;
5297;SDS011;14738;42.668;23.250;2023-04-03T00:41:21;2.50;;;2.30;;
5297;SDS011;14738;42.668;23.250;2023-04-03T00:43:47;3.13;;;2.83;;
5297;SDS011;14738;42.668;23.250;2023-04-03T00:46:12;2.20;;;2.10;;
5297;SDS011;14738;42.668;23.250;2023-04-03T00:48:39;3.13;;;2.93;;
5297;SDS011;14738;42.668;23.250;2023-04-03T00:51:09;4.40;;;2.33;;
5297;SDS011;14738;42.668;23.250;2023-04-03T00:53:39;2.50;;;2.40;;
5297;SDS011;14738;42.668;23.250;2023-04-03T00:56:08;2.67;;;2.47;;
5297;SDS011;14738;42.668;23.250;2023-04-03T00:58:39;2.00;;;1.90;;
5297;SDS011;14738;42.668;23.250;2023-04-03T01:01:10;2.50;;;2.40;;
5297;SDS011;14738;42.668;23.250;2023-04-03T01:03:40;2.73;;;2.17;;
5297;SDS011;14738;42.668;23.250;2023-04-03T01:06:05;1.90;;;1.80;;
5297;SDS011;14738;42.668;23.250;2023-04-03T01:08:31;1.40;;;1.40;;
5297;SDS011;14738;42.668;23.250;2023-04-03T01:10:56;2.27;;;2.13;;
5297;SDS011;14738;42.668;23.250;2023-04-03T01:13:27;1.83;;;1.80;;
5297;SDS011;14738;42.668;23.250;2023-04-03T01:16:00;2.37;;;2.20;;
5297;SDS011;14738;42.668;23.250;2023-04-03T01:18:27;2.90;;;2.60;;
5297;SDS011;14738;42.668;23.250;2023-04-03T01:24:09;2.87;;;2.60;;
5297;SDS011;14738;42.668;23.250;2023-04-03T01:26:44;3.20;;;3.00;;
5297;SDS011;14738;42.668;23.250;2023-04-03T01:29:10;2.70;;;2.37;;
5297;SDS011;14738;42.668;23.250;2023-04-03T01:31:49;2.60;;;2.23;;
5297;SDS011;14738;42.668;23.250;2023-04-03T01:34:15;2.20;;;2.10;;
5297;SDS011;14738;42.668;23.250;2023-04-03T01:36:41;2.60;;;2.50;;
5297;SDS011;14738;42.668;23.250;2023-04-03T01:39:06;2.03;;;1.93;;
5297;SDS011;14738;42.668;23.250;2023-04-03T01:41:32;2.70;;;2.50;;
5297;SDS011;14738;42.668;23.250;2023-04-03T01:43:58;2.73;;;2.60;;
5297;SDS011;14738;42.668;23.250;2023-04-03T01:46:23;3.33;;;3.23;;
5297;SDS011;14738;42.668;23.250;2023-04-03T01:48:49;2.57;;;2.37;;
5297;SDS011;14738;42.668;23.250;2023-04-03T01:51:14;3.23;;;2.90;;
5297;SDS011;14738;42.668;23.250;2023-04-03T01:53:40;3.00;;;2.80;;
5297;SDS011;14738;42.668;23.250;2023-04-03T01:56:05;4.00;;;2.90;;
5297;SDS011;14738;42.668;23.250;2023-04-03T01:58:31;2.70;;;2.60;;
5297;SDS011;14738;42.668;23.250;2023-04-03T02:00:57;2.60;;;2.50;;
5297;SDS011;14738;42.668;23.250;2023-04-03T02:03:22;2.60;;;2.50;;
5297;SDS011;14738;42.668;23.250;2023-04-03T02:05:48;2.97;;;2.77;;
5297;SDS011;14738;42.668;23.250;2023-04-03T02:08:14;2.87;;;2.77;;
5297;SDS011;14738;42.668;23.250;2023-04-03T02:10:42;2.57;;;2.47;;
5297;SDS011;14738;42.668;23.250;2023-04-03T02:13:08;3.60;;;3.27;;
5297;SDS011;14738;42.668;23.250;2023-04-03T02:15:37;2.50;;;2.40;;
5297;SDS011;14738;42.668;23.250;2023-04-03T02:18:03;2.70;;;2.50;;
5297;SDS011;14738;42.668;23.250;2023-04-03T02:20:28;2.70;;;2.60;;
5297;SDS011;14738;42.668;23.250;2023-04-03T02:22:54;2.67;;;2.47;;
5297;SDS011;14738;42.668;23.250;2023-04-03T02:25:19;5.97;;;2.47;;
5297;SDS011;14738;42.668;23.250;2023-04-03T02:27:45;2.27;;;2.17;;
5297;SDS011;14738;42.668;23.250;2023-04-03T02:30:10;2.60;;;2.50;;
5297;SDS011;14738;42.668;23.250;2023-04-03T02:32:36;2.63;;;2.53;;
5297;SDS011;14738;42.668;23.250;2023-04-03T02:35:01;2.20;;;2.10;;
5297;SDS011;14738;42.668;23.250;2023-04-03T02:37:27;2.80;;;2.70;;
5297;SDS011;14738;42.668;23.250;2023-04-03T02:39:52;3.30;;;2.80;;
5297;SDS011;14738;42.668;23.250;2023-04-03T02:42:18;3.60;;;3.30;;
5297;SDS011;14738;42.668;23.250;2023-04-03T02:44:43;3.37;;;3.17;;
5297;SDS011;14738;42.668;23.250;2023-04-03T02:47:09;3.23;;;3.03;;
5297;SDS011;14738;42.668;23.250;2023-04-03T02:49:34;3.40;;;3.20;;
5297;SDS011;14738;42.668;23.250;2023-04-03T02:52:00;3.20;;;2.97;;
5297;SDS011;14738;42.668;23.250;2023-04-03T02:54:25;3.10;;;2.90;;
5297;SDS011;14738;42.668;23.250;2023-04-03T02:56:53;4.17;;;3.10;;
5297;SDS011;14738;42.668;23.250;2023-04-03T02:59:19;3.90;;;3.67;;
5297;SDS011;14738;42.668;23.250;2023-04-03T03:01:45;4.67;;;4.37;;
5297;SDS011;14738;42.668;23.250;2023-04-03T03:04:11;5.27;;;4.87;;
5297;SDS011;14738;42.668;23.250;2023-04-03T03:06:36;5.20;;;4.80;;
5297;SDS011;14738;42.668;23.250;2023-04-03T03:09:01;4.10;;;3.87;;
5297;SDS011;14738;42.668;23.250;2023-04-03T03:11:28;5.03;;;4.73;;
5297;SDS011;14738;42.668;23.250;2023-04-03T03:13:55;4.53;;;4.23;;
5297;SDS011;14738;42.668;23.250;2023-04-03T03:16:21;4.60;;;4.20;;
5297;SDS011;14738;42.668;23.250;2023-04-03T03:18:46;4.10;;;3.80;;
5297;SDS011;14738;42.668;23.250;2023-04-03T03:21:11;4.70;;;3.73;;
5297;SDS011;14738;42.668;23.250;2023-04-03T03:23:37;4.60;;;4.20;;
5297;SDS011;14738;42.668;23.250;2023-04-03T03:26:03;4.97;;;4.57;;
5297;SDS011;14738;42.668;23.250;2023-04-03T03:28:31;7.33;;;6.70;;
5297;SDS011;14738;42.668;23.250;2023-04-03T03:30:57;8.80;;;7.63;;
5297;SDS011;14738;42.668;23.250;2023-04-03T03:33:22;4.43;;;4.13;;
5297;SDS011;14738;42.668;23.250;2023-04-03T03:35:48;4.07;;;3.77;;
5297;SDS011;14738;42.668;23.250;2023-04-03T03:38:14;3.40;;;3.20;;
5297;SDS011;14738;42.668;23.250;2023-04-03T03:40:39;3.67;;;3.47;;
5297;SDS011;14738;42.668;23.250;2023-04-03T03:43:04;3.50;;;3.30;;
5297;SDS011;14738;42.668;23.250;2023-04-03T03:45:30;4.70;;;4.33;;
5297;SDS011;14738;42.668;23.250;2023-04-03T03:47:56;6.70;;;5.13;;
5297;SDS011;14738;42.668;23.250;2023-04-03T03:50:21;10.00;;;9.00;;
5297;SDS011;14738;42.668;23.250;2023-04-03T03:52:47;9.07;;;8.17;;
5297;SDS011;14738;42.668;23.250;2023-04-03T03:55:12;8.47;;;7.67;;
5297;SDS011;14738;42.668;23.250;2023-04-03T03:57:38;7.30;;;6.60;;
5297;SDS011;14738;42.668;23.250;2023-04-03T04:00:04;8.00;;;6.50;;
5297;SDS011;14738;42.668;23.250;2023-04-03T04:02:30;6.73;;;5.30;;
5297;SDS011;14738;42.668;23.250;2023-04-03T04:04:55;6.00;;;5.40;;
5297;SDS011;14738;42.668;23.250;2023-04-03T04:07:21;5.77;;;5.30;;
5297;SDS011;14738;42.668;23.250;2023-04-03T04:09:46;5.80;;;5.40;;
5297;SDS011;14738;42.668;23.250;2023-04-03T04:12:11;5.90;;;5.30;;
5297;SDS011;14738;42.668;23.250;2023-04-03T04:14:37;5.97;;;5.40;;
5297;SDS011;14738;42.668;23.250;2023-04-03T04:17:02;5.43;;;5.03;;
5297;SDS011;14738;42.668;23.250;2023-04-03T04:19:28;8.00;;;6.40;;
5297;SDS011;14738;42.668;23.250;2023-04-03T04:21:54;7.50;;;6.70;;
5297;SDS011;14738;42.668;23.250;2023-04-03T04:24:19;12.53;;;7.27;;
5297;SDS011;14738;42.668;23.250;2023-04-03T04:26:45;9.83;;;8.83;;
5297;SDS011;14738;42.668;23.250;2023-04-03T04:29:10;10.90;;;8.70;;
5297;SDS011;14738;42.668;23.250;2023-04-03T04:31:36;6.50;;;6.00;;
5297;SDS011;14738;42.668;23.250;2023-04-03T04:34:01;12.30;;;11.03;;
5297;SDS011;14738;42.668;23.250;2023-04-03T04:36:27;10.53;;;9.53;;
5297;SDS011;14738;42.668;23.250;2023-04-03T04:38:53;10.33;;;8.67;;
5297;SDS011;14738;42.668;23.250;2023-04-03T04:41:21;8.33;;;7.60;;
5297;SDS011;14738;42.668;23.250;2023-04-03T04:43:50;10.37;;;9.37;;
5297;SDS011;14738;42.668;23.250;2023-04-03T04:46:16;18.03;;;9.20;;
5297;SDS011;14738;42.668;23.250;2023-04-03T04:48:42;10.00;;;7.70;;
5297;SDS011;14738;42.668;23.250;2023-04-03T04:51:08;7.57;;;6.77;;
5297;SDS011;14738;42.668;23.250;2023-04-03T04:53:33;8.77;;;7.00;;
5297;SDS011;14738;42.668;23.250;2023-04-03T04:55:59;7.73;;;6.27;;
5297;SDS011;14738;42.668;23.250;2023-04-03T04:58:25;6.37;;;5.40;;
5297;SDS011;14738;42.668;23.250;2023-04-03T05:00:58;6.80;;;6.20;;
5297;SDS011;14738;42.668;23.250;2023-04-03T05:03:24;8.70;;;7.60;;
5297;SDS011;14738;42.668;23.250;2023-04-03T05:05:50;10.23;;;6.38;;
5297;SDS011;14738;42.668;23.250;2023-04-03T05:08:15;8.30;;;7.17;;
5297;SDS011;14738;42.668;23.250;2023-04-03T05:10:41;9.30;;;7.53;;
5297;SDS011;14738;42.668;23.250;2023-04-03T05:13:07;8.60;;;7.70;;
5297;SDS011;14738;42.668;23.250;2023-04-03T05:15:32;10.83;;;7.53;;
5297;SDS011;14738;42.668;23.250;2023-04-03T05:17:58;11.43;;;8.20;;
5297;SDS011;14738;42.668;23.250;2023-04-03T05:20:24;8.57;;;7.77;;
5297;SDS011;14738;42.668;23.250;2023-04-03T05:22:50;14.70;;;7.13;;
5297;SDS011;14738;42.668;23.250;2023-04-03T05:25:15;5.90;;;5.03;;
5297;SDS011;14738;42.668;23.250;2023-04-03T05:27:41;13.50;;;10.40;;
5297;SDS011;14738;42.668;23.250;2023-04-03T05:30:07;11.30;;;9.17;;
5297;SDS011;14738;42.668;23.250;2023-04-03T05:32:33;11.27;;;10.07;;
5297;SDS011;14738;42.668;23.250;2023-04-03T05:34:58;14.03;;;10.50;;
5297;SDS011;14738;42.668;23.250;2023-04-03T05:37:24;19.20;;;9.60;;
5297;SDS011;14738;42.668;23.250;2023-04-03T05:39:49;12.93;;;8.93;;
5297;SDS011;14738;42.668;23.250;2023-04-03T05:42:15;29.27;;;17.67;;
5297;SDS011;14738;42.668;23.250;2023-04-03T05:44:40;18.83;;;16.47;;
5297;SDS011;14738;42.668;23.250;2023-04-03T05:47:06;21.20;;;15.60;;
5297;SDS011;14738;42.668;23.250;2023-04-03T05:49:32;20.70;;;15.30;;
5297;SDS011;14738;42.668;23.250;2023-04-03T05:51:57;23.00;;;15.47;;
5297;SDS011;14738;42.668;23.250;2023-04-03T05:54:26;29.87;;;16.80;;
5297;SDS011;14738;42.668;23.250;2023-04-03T05:56:54;24.30;;;15.80;;
5297;SDS011;14738;42.668;23.250;2023-04-03T05:59:20;19.73;;;13.30;;
5297;SDS011;14738;42.668;23.250;2023-04-03T06:01:46;18.40;;;12.73;;
5297;SDS011;14738;42.668;23.250;2023-04-03T06:04:12;17.97;;;12.17;;
5297;SDS011;14738;42.668;23.250;2023-04-03T06:06:54;16.03;;;12.80;;
5297;SDS011;14738;42.668;23.250;2023-04-03T06:09:24;17.70;;;13.13;;
5297;SDS011;14738;42.668;23.250;2023-04-03T06:11:52;12.23;;;9.10;;
5297;SDS011;14738;42.668;23.250;2023-04-03T06:14:18;8.10;;;6.67;;
5297;SDS011;14738;42.668;23.250;2023-04-03T06:16:44;11.33;;;7.67;;
5297;SDS011;14738;42.668;23.250;2023-04-03T06:19:10;17.20;;;10.70;;
5297;SDS011;14738;42.668;23.250;2023-04-03T06:21:36;7.43;;;6.40;;
5297;SDS011;14738;42.668;23.250;2023-04-03T06:24:03;8.23;;;6.40;;
5297;SDS011;14738;42.668;23.250;2023-04-03T06:26:29;7.73;;;7.03;;
5297;SDS011;14738;42.668;23.250;2023-04-03T06:28:55;10.20;;;7.20;;
5297;SDS011;14738;42.668;23.250;2023-04-03T06:31:23;9.33;;;7.60;;
5297;SDS011;14738;42.668;23.250;2023-04-03T06:33:48;10.33;;;7.00;;
5297;SDS011;14738;42.668;23.250;2023-04-03T06:36:14;8.37;;;7.57;;
5297;SDS011;14738;42.668;23.250;2023-04-03T06:38:44;8.37;;;7.37;;
5297;SDS011;14738;42.668;23.250;2023-04-03T06:41:10;6.37;;;5.70;;
5297;SDS011;14738;42.668;23.250;2023-04-03T06:43:36;6.17;;;5.00;;
5297;SDS011;14738;42.668;23.250;2023-04-03T06:46:01;7.10;;;5.90;;
5297;SDS011;14738;42.668;23.250;2023-04-03T06:48:27;5.43;;;5.03;;
5297;SDS011;14738;42.668;23.250;2023-04-03T06:50:53;5.00;;;4.60;;
5297;SDS011;14738;42.668;23.250;2023-04-03T06:53:18;4.87;;;4.47;;
5297;SDS011;14738;42.668;23.250;2023-04-03T06:55:45;8.67;;;4.53;;
5297;SDS011;14738;42.668;23.250;2023-04-03T06:58:12;3.80;;;3.50;;
5297;SDS011;14738;42.668;23.250;2023-04-03T07:00:37;4.53;;;3.30;;
5297;SDS011;14738;42.668;23.250;2023-04-03T07:03:03;6.00;;;3.80;;
5297;SDS011;14738;42.668;23.250;2023-04-03T07:05:29;5.07;;;4.57;;
5297;SDS011;14738;42.668;23.250;2023-04-03T07:07:54;5.27;;;3.50;;
5297;SDS011;14738;42.668;23.250;2023-04-03T07:10:19;2.97;;;2.73;;
5297;SDS011;14738;42.668;23.250;2023-04-03T07:12:45;3.80;;;3.13;;
5297;SDS011;14738;42.668;23.250;2023-04-03T07:15:11;3.10;;;2.87;;
5297;SDS011;14738;42.668;23.250;2023-04-03T07:17:38;3.57;;;3.30;;
5297;SDS011;14738;42.668;23.250;2023-04-03T07:20:03;3.60;;;3.40;;
5297;SDS011;14738;42.668;23.250;2023-04-03T07:22:29;5.57;;;3.70;;
5297;SDS011;14738;42.668;23.250;2023-04-03T07:24:55;3.77;;;3.47;;
5297;SDS011;14738;42.668;23.250;2023-04-03T07:27:21;3.77;;;3.47;;
5297;SDS011;14738;42.668;23.250;2023-04-03T07:29:46;4.07;;;3.63;;
5297;SDS011;14738;42.668;23.250;2023-04-03T07:32:13;4.87;;;4.13;;
5297;SDS011;14738;42.668;23.250;2023-04-03T07:34:40;3.73;;;3.47;;
5297;SDS011;14738;42.668;23.250;2023-04-03T07:37:06;4.40;;;3.67;;
5297;SDS011;14738;42.668;23.250;2023-04-03T07:39:32;3.37;;;3.17;;
5297;SDS011;14738;42.668;23.250;2023-04-03T07:41:58;4.23;;;3.83;;
5297;SDS011;14738;42.668;23.250;2023-04-03T07:44:23;4.97;;;4.13;;
5297;SDS011;14738;42.668;23.250;2023-04-03T07:46:49;3.93;;;3.63;;
5297;SDS011;14738;42.668;23.250;2023-04-03T07:49:15;3.30;;;3.10;;
5297;SDS011;14738;42.668;23.250;2023-04-03T07:51:43;3.43;;;3.23;;
5297;SDS011;14738;42.668;23.250;2023-04-03T07:54:09;3.90;;;3.30;;
5297;SDS011;14738;42.668;23.250;2023-04-03T07:56:34;6.00;;;3.70;;
5297;SDS011;14738;42.668;23.250;2023-04-03T07:59:00;6.40;;;3.00;;
5297;SDS011;14738;42.668;23.250;2023-04-03T08:01:25;2.90;;;2.80;;
5297;SDS011;14738;42.668;23.250;2023-04-03T08:03:51;6.60;;;4.27;;
5297;SDS011;14738;42.668;23.250;2023-04-03T08:06:16;5.10;;;3.53;;
5297;SDS011;14738;42.668;23.250;2023-04-03T08:08:42;4.60;;;4.20;;
5297;SDS011;14738;42.668;23.250;2023-04-03T08:11:07;4.80;;;4.40;;
5297;SDS011;14738;42.668;23.250;2023-04-03T08:13:33;3.27;;;3.10;;
5297;SDS011;14738;42.668;23.250;2023-04-03T08:16:14;4.93;;;3.90;;
5297;SDS011;14738;42.668;23.250;2023-04-03T08:18:42;6.37;;;4.20;;
5297;SDS011;14738;42.668;23.250;2023-04-03T08:21:09;5.07;;;4.57;;
5297;SDS011;14738;42.668;23.250;2023-04-03T08:23:35;8.30;;;6.20;;
5297;SDS011;14738;42.668;23.250;2023-04-03T08:26:07;6.10;;;5.50;;
5297;SDS011;14738;42.668;23.250;2023-04-03T08:28:34;8.67;;;6.77;;
5297;SDS011;14738;42.668;23.250;2023-04-03T08:31:04;7.00;;;6.40;;
5297;SDS011;14738;42.668;23.250;2023-04-03T08:33:32;7.10;;;6.27;;
5297;SDS011;14738;42.668;23.250;2023-04-03T08:35:58;6.30;;;5.70;;
5297;SDS011;14738;42.668;23.250;2023-04-03T08:38:23;8.03;;;6.87;;
5297;SDS011;14738;42.668;23.250;2023-04-03T08:41:35;7.67;;;6.87;;
5297;SDS011;14738;42.668;23.250;2023-04-03T08:49:39;9.60;;;7.93;;
5297;SDS011;14738;42.668;23.250;2023-04-03T08:52:13;9.60;;;7.37;;
5297;SDS011;14738;42.668;23.250;2023-04-03T08:54:51;7.83;;;7.13;;
5297;SDS011;14738;42.668;23.250;2023-04-03T08:57:29;8.87;;;8.07;;
5297;SDS011;14738;42.668;23.250;2023-04-03T09:00:15;7.90;;;7.20;;
5297;SDS011;14738;42.668;23.250;2023-04-03T09:02:54;9.50;;;8.50;;
5297;SDS011;14738;42.668;23.250;2023-04-03T09:10:38;12.33;;;10.80;;
5297;SDS011;14738;42.668;23.250;2023-04-03T09:13:08;15.20;;;10.97;;
5297;SDS011;14738;42.668;23.250;2023-04-03T09:15:38;14.53;;;11.17;;
5297;SDS011;14738;42.668;23.250;2023-04-03T09:18:07;14.00;;;12.53;;
5297;SDS011;14738;42.668;23.250;2023-04-03T09:23:26;15.47;;;13.30;;
5297;SDS011;14738;42.668;23.250;2023-04-03T09:26:03;24.03;;;16.00;;
5297;SDS011;14738;42.668;23.250;2023-04-03T09:28:35;16.37;;;14.03;;
5297;SDS011;14738;42.668;23.250;2023-04-03T09:31:18;16.43;;;13.47;;
5297;SDS011;14738;42.668;23.250;2023-04-03T09:33:49;21.37;;;15.10;;
5297;SDS011;14738;42.668;23.250;2023-04-03T09:39:15;17.23;;;15.43;;
5297;SDS011;14738;42.668;23.250;2023-04-03T09:41:54;14.87;;;12.90;;
5297;SDS011;14738;42.668;23.250;2023-04-03T09:44:32;17.90;;;11.40;;
5297;SDS011;14738;42.668;23.250;2023-04-03T09:47:18;23.30;;;13.33;;
5297;SDS011;14738;42.668;23.250;2023-04-03T09:49:48;12.47;;;11.17;;
5297;SDS011;14738;42.668;23.250;2023-04-03T09:52:23;12.43;;;9.07;;
5297;SDS011;14738;42.668;23.250;2023-04-03T09:54:50;13.53;;;7.33;;
5297;SDS011;14738;42.668;23.250;2023-04-03T09:57:16;6.73;;;6.03;;
5297;SDS011;14738;42.668;23.250;2023-04-03T09:59:58;9.50;;;7.77;;
5297;SDS011;14738;42.668;23.250;2023-04-03T10:02:34;11.20;;;7.90;;
5297;SDS011;14738;42.668;23.250;2023-04-03T10:05:02;7.50;;;6.80;;
5297;SDS011;14738;42.668;23.250;2023-04-03T10:07:32;8.40;;;5.13;;
5297;SDS011;14738;42.668;23.250;2023-04-03T10:12:47;5.87;;;4.60;;
5297;SDS011;14738;42.668;23.250;2023-04-03T10:15:15;5.77;;;3.67;;
5297;SDS011;14738;42.668;23.250;2023-04-03T10:17:49;4.90;;;4.40;;
5297;SDS011;14738;42.668;23.250;2023-04-03T10:25:42;13.70;;;4.03;;
5297;SDS011;14738;42.668;23.250;2023-04-03T10:34:18;4.17;;;3.00;;
5297;SDS011;14738;42.668;23.250;2023-04-03T10:42:02;3.60;;;3.30;;
5297;SDS011;14738;42.668;23.250;2023-04-03T10:44:41;3.03;;;2.83;;
5297;SDS011;14738;42.668;23.250;2023-04-03T10:47:20;5.77;;;3.63;;
5297;SDS011;14738;42.668;23.250;2023-04-03T10:57:38;4.53;;;3.17;;
5297;SDS011;14738;42.668;23.250;2023-04-03T11:00:06;17.67;;;4.20;;
5297;SDS011;14738;42.668;23.250;2023-04-03T11:02:54;3.47;;;3.17;;
5297;SDS011;14738;42.668;23.250;2023-04-03T11:10:59;3.23;;;2.93;;
5297;SDS011;14738;42.668;23.250;2023-04-03T11:13:33;3.10;;;2.90;;
5297;SDS011;14738;42.668;23.250;2023-04-03T11:16:02;3.63;;;3.30;;
5297;SDS011;14738;42.668;23.250;2023-04-03T11:23:52;5.47;;;4.87;;
5297;SDS011;14738;42.668;23.250;2023-04-03T11:26:22;8.93;;;7.40;;
5297;SDS011;14738;42.668;23.250;2023-04-03T11:28:53;10.30;;;8.07;;
5297;SDS011;14738;42.668;23.250;2023-04-03T11:31:35;7.60;;;6.50;;
5297;SDS011;14738;42.668;23.250;2023-04-03T11:36:52;8.13;;;5.90;;
5297;SDS011;14738;42.668;23.250;2023-04-03T11:39:26;5.17;;;4.87;;
5297;SDS011;14738;42.668;23.250;2023-04-03T11:41:55;5.37;;;4.90;;
5297;SDS011;14738;42.668;23.250;2023-04-03T11:44:38;6.97;;;5.37;;
5297;SDS011;14738;42.668;23.250;2023-04-03T11:47:06;11.50;;;7.57;;
5297;SDS011;14738;42.668;23.250;2023-04-03T11:49:50;11.87;;;7.50;;
5297;SDS011;14738;42.668;23.250;2023-04-03T12:05:49;7.07;;;6.43;;
5297;SDS011;14738;42.668;23.250;2023-04-03T12:13:40;7.57;;;6.23;;
5297;SDS011;14738;42.668;23.250;2023-04-03T12:16:28;6.57;;;5.17;;
5297;SDS011;14738;42.668;23.250;2023-04-03T12:29:59;9.70;;;8.70;;
5297;SDS011;14738;42.668;23.250;2023-04-03T12:35:42;5.87;;;5.37;;
5297;SDS011;14738;42.668;23.250;2023-04-03T12:41:18;5.97;;;5.53;;
5297;SDS011;14738;42.668;23.250;2023-04-03T12:43:59;10.00;;;7.50;;
5297;SDS011;14738;42.668;23.250;2023-04-03T12:46:26;6.20;;;5.20;;
5297;SDS011;14738;42.668;23.250;2023-04-03T12:49:12;8.70;;;7.90;;
5297;SDS011;14738;42.668;23.250;2023-04-03T12:51:47;7.80;;;7.10;;
5297;SDS011;14738;42.668;23.250;2023-04-03T12:54:15;8.50;;;7.50;;
5297;SDS011;14738;42.668;23.250;2023-04-03T12:56:43;8.73;;;7.83;;
5297;SDS011;14738;42.668;23.250;2023-04-03T12:59:16;7.53;;;6.83;;
5297;SDS011;14738;42.668;23.250;2023-04-03T13:01:56;7.23;;;6.73;;
5297;SDS011;14738;42.668;23.250;2023-04-03T13:04:23;9.60;;;8.60;;
5297;SDS011;14738;42.668;23.250;2023-04-03T13:06:50;7.20;;;6.50;;
5297;SDS011;14738;42.668;23.250;2023-04-03T13:09:20;8.80;;;8.10;;
5297;SDS011;14738;42.668;23.250;2023-04-03T13:11:58;13.60;;;8.00;;
5297;SDS011;14738;42.668;23.250;2023-04-03T13:14:29;7.73;;;7.13;;
5297;SDS011;14738;42.668;23.250;2023-04-03T13:16:56;9.80;;;8.90;;
5297;SDS011;14738;42.668;23.250;2023-04-03T13:19:37;9.47;;;8.40;;
5297;SDS011;14738;42.668;23.250;2023-04-03T13:22:08;10.30;;;9.30;;
5297;SDS011;14738;42.668;23.250;2023-04-03T13:24:43;12.13;;;8.60;;
5297;SDS011;14738;42.668;23.250;2023-04-03T13:27:12;8.97;;;8.27;;
5297;SDS011;14738;42.668;23.250;2023-04-03T13:29:37;11.40;;;10.20;;
5297;SDS011;14738;42.668;23.250;2023-04-03T13:32:04;10.63;;;9.50;;
5297;SDS011;14738;42.668;23.250;2023-04-03T13:34:38;9.53;;;8.00;;
5297;SDS011;14738;42.668;23.250;2023-04-03T13:37:11;7.07;;;6.57;;
5297;SDS011;14738;42.668;23.250;2023-04-03T13:39:45;8.77;;;8.07;;
5297;SDS011;14738;42.668;23.250;2023-04-03T13:42:24;10.80;;;9.77;;
5297;SDS011;14738;42.668;23.250;2023-04-03T13:53:22;8.30;;;7.60;;
5297;SDS011;14738;42.668;23.250;2023-04-03T13:56:05;12.70;;;11.53;;
5297;SDS011;14738;42.668;23.250;2023-04-03T13:58:34;10.20;;;9.30;;
5297;SDS011;14738;42.668;23.250;2023-04-03T14:01:08;11.10;;;10.10;;
5297;SDS011;14738;42.668;23.250;2023-04-03T14:03:45;14.53;;;12.90;;
5297;SDS011;14738;42.668;23.250;2023-04-03T14:06:14;11.97;;;10.70;;
5297;SDS011;14738;42.668;23.250;2023-04-03T14:08:41;8.80;;;7.87;;
5297;SDS011;14738;42.668;23.250;2023-04-03T14:11:41;9.70;;;8.77;;
5297;SDS011;14738;42.668;23.250;2023-04-03T14:14:01;10.57;;;9.50;;
5297;SDS011;14738;42.668;23.250;2023-04-03T14:16:31;8.73;;;7.83;;
5297;SDS011;14738;42.668;23.250;2023-04-03T14:19:03;8.60;;;7.33;;
5297;SDS011;14738;42.668;23.250;2023-04-03T14:21:28;8.90;;;8.00;;
5297;SDS011;14738;42.668;23.250;2023-04-03T14:23:54;8.17;;;7.37;;
5297;SDS011;14738;42.668;23.250;2023-04-03T14:26:21;8.23;;;7.43;;
5297;SDS011;14738;42.668;23.250;2023-04-03T14:28:52;7.83;;;7.17;;
5297;SDS011;14738;42.668;23.250;2023-04-03T14:31:19;8.30;;;7.60;;
5297;SDS011;14738;42.668;23.250;2023-04-03T14:33:46;8.97;;;8.17;;
5297;SDS011;14738;42.668;23.250;2023-04-03T14:36:19;7.50;;;6.90;;
5297;SDS011;14738;42.668;23.250;2023-04-03T14:38:48;5.33;;;5.03;;
5297;SDS011;14738;42.668;23.250;2023-04-03T14:41:17;7.33;;;6.63;;
5297;SDS011;14738;42.668;23.250;2023-04-03T14:43:45;7.93;;;7.13;;
5297;SDS011;14738;42.668;23.250;2023-04-03T14:46:45;8.37;;;7.57;;
5297;SDS011;14738;42.668;23.250;2023-04-03T14:49:11;6.23;;;5.77;;
5297;SDS011;14738;42.668;23.250;2023-04-03T14:51:40;4.30;;;4.00;;
5297;SDS011;14738;42.668;23.250;2023-04-03T14:54:06;7.90;;;7.20;;
5297;SDS011;14738;42.668;23.250;2023-04-03T14:56:38;7.60;;;6.90;;
5297;SDS011;14738;42.668;23.250;2023-04-03T14:59:04;6.00;;;5.60;;
5297;SDS011;14738;42.668;23.250;2023-04-03T15:01:34;5.53;;;5.13;;
5297;SDS011;14738;42.668;23.250;2023-04-03T15:04:00;7.30;;;6.70;;
5297;SDS011;14738;42.668;23.250;2023-04-03T15:06:25;3.90;;;3.60;;
5297;SDS011;14738;42.668;23.250;2023-04-03T15:08:51;5.40;;;4.90;;
5297;SDS011;14738;42.668;23.250;2023-04-03T15:11:17;6.00;;;5.60;;
5297;SDS011;14738;42.668;23.250;2023-04-03T15:13:42;6.00;;;5.50;;
5297;SDS011;14738;42.668;23.250;2023-04-03T15:16:15;7.10;;;6.50;;
5297;SDS011;14738;42.668;23.250;2023-04-03T15:18:43;7.50;;;6.90;;
5297;SDS011;14738;42.668;23.250;2023-04-03T15:21:09;4.70;;;4.30;;
5297;SDS011;14738;42.668;23.250;2023-04-03T15:23:35;8.50;;;7.80;;
5297;SDS011;14738;42.668;23.250;2023-04-03T15:26:01;7.73;;;7.03;;
5297;SDS011;14738;42.668;23.250;2023-04-03T15:28:39;6.90;;;6.30;;
5297;SDS011;14738;42.668;23.250;2023-04-03T15:31:07;6.40;;;5.80;;
5297;SDS011;14738;42.668;23.250;2023-04-03T15:33:33;7.67;;;7.07;;
5297;SDS011;14738;42.668;23.250;2023-04-03T15:36:00;8.57;;;7.87;;
5297;SDS011;14738;42.668;23.250;2023-04-03T15:38:25;7.30;;;6.70;;
5297;SDS011;14738;42.668;23.250;2023-04-03T15:40:51;6.07;;;5.63;;
5297;SDS011;14738;42.668;23.250;2023-04-03T15:43:16;6.53;;;6.03;;
5297;SDS011;14738;42.668;23.250;2023-04-03T15:45:43;7.27;;;6.57;;
5297;SDS011;14738;42.668;23.250;2023-04-03T15:48:10;7.50;;;7.00;;
5297;SDS011;14738;42.668;23.250;2023-04-03T15:50:36;7.87;;;7.17;;
5297;SDS011;14738;42.668;23.250;2023-04-03T15:53:02;9.23;;;8.43;;
5297;SDS011;14738;42.668;23.250;2023-04-03T15:55:29;9.80;;;8.90;;
5297;SDS011;14738;42.668;23.250;2023-04-03T15:57:56;10.80;;;9.80;;
5297;SDS011;14738;42.668;23.250;2023-04-03T16:00:22;10.80;;;9.80;;
5297;SDS011;14738;42.668;23.250;2023-04-03T16:02:50;8.90;;;8.03;;
5297;SDS011;14738;42.668;23.250;2023-04-03T16:05:21;8.60;;;6.13;;
5297;SDS011;14738;42.668;23.250;2023-04-03T16:07:47;14.20;;;12.70;;
5297;SDS011;14738;42.668;23.250;2023-04-03T16:10:15;9.83;;;8.97;;
5297;SDS011;14738;42.668;23.250;2023-04-03T16:12:42;9.80;;;8.90;;
5297;SDS011;14738;42.668;23.250;2023-04-03T16:15:07;9.93;;;9.00;;
5297;SDS011;14738;42.668;23.250;2023-04-03T16:17:33;8.27;;;7.20;;
5297;SDS011;14738;42.668;23.250;2023-04-03T16:20:01;8.80;;;8.07;;
5297;SDS011;14738;42.668;23.250;2023-04-03T16:22:28;10.40;;;9.27;;
5297;SDS011;14738;42.668;23.250;2023-04-03T16:24:54;12.73;;;11.10;;
5297;SDS011;14738;42.668;23.250;2023-04-03T16:27:20;10.03;;;9.07;;
5297;SDS011;14738;42.668;23.250;2023-04-03T16:29:46;8.73;;;7.90;;
5297;SDS011;14738;42.668;23.250;2023-04-03T16:32:12;5.83;;;5.33;;
5297;SDS011;14738;42.668;23.250;2023-04-03T16:34:38;8.53;;;7.83;;